Time;durP1;ratioP1;P1;durP2;ratioP2;P2;SDS_P1;SDS_P2;PMS_P1;PMS_P2;Temp;Humidity;BMP_temperature;BMP_pressure;BME280_temperature;BME280_humidity;BME280_pressure;Samples;Min_cycle;Max_cycle;Signal;HPM_P1;HPM_P2
2021/09/04 00:00:31;;;;;;;16.83;13.38;;;;;;;;;;5094141;28;20023;-56
2021/09/04 00:02:56;;;;;;;14.80;12.18;;;;;;;;;;5113203;28;20389;-56
2021/09/04 00:05:21;;;;;;;12.38;11.18;;;;;;;;;;5113305;28;20370;-55
2021/09/04 00:07:46;;;;;;;13.38;11.25;;;;;;;;;;5112918;28;20032;-55
2021/09/04 00:10:12;;;;;;;17.98;12.80;;;;;;;;;;5112325;28;20022;-55
2021/09/04 00:12:37;;;;;;;12.27;11.07;;;;;;;;;;5112873;28;20120;-56
2021/09/04 00:15:03;;;;;;;11.23;9.82;;;;;;;;;;5112601;28;20027;-57
2021/09/04 00:17:28;;;;;;;16.88;11.50;;;;;;;;;;5112523;28;20031;-57
2021/09/04 00:19:53;;;;;;;14.02;11.63;;;;;;;;;;5112453;28;20019;-56
2021/09/04 00:22:18;;;;;;;13.88;11.98;;;;;;;;;;5112719;28;20019;-57
2021/09/04 00:24:44;;;;;;;12.90;11.50;;;;;;;;;;5112164;28;20358;-56
2021/09/04 00:27:09;;;;;;;13.95;11.18;;;;;;;;;;5112708;28;20424;-56
2021/09/04 00:29:35;;;;;;;15.13;12.77;;;;;;;;;;5111515;28;20130;-57
2021/09/04 00:32:00;;;;;;;12.88;11.07;;;;;;;;;;5112592;28;20051;-56
2021/09/04 00:34:26;;;;;;;12.32;10.85;;;;;;;;;;5112395;28;20470;-56
2021/09/04 00:36:51;;;;;;;14.52;12.23;;;;;;;;;;5113110;28;20487;-57
2021/09/04 00:39:16;;;;;;;12.65;10.98;;;;;;;;;;5111724;28;20107;-55
2021/09/04 00:41:42;;;;;;;12.70;11.27;;;;;;;;;;5111671;28;20046;-56
2021/09/04 00:44:12;;;;;;;12.98;11.73;;;;;;;;;;5093631;28;20359;-56
2021/09/04 00:46:37;;;;;;;13.90;11.95;;;;;;;;;;5112404;28;20016;-58
2021/09/04 00:49:03;;;;;;;14.10;12.60;;;;;;;;;;5112092;28;20035;-61
2021/09/04 00:51:28;;;;;;;15.30;11.85;;;;;;;;;;5111374;28;20035;-56
2021/09/04 00:53:53;;;;;;;12.90;11.10;;;;;;;;;;5112638;28;20019;-58
2021/09/04 00:56:18;;;;;;;15.70;11.45;;;;;;;;;;5092817;28;20118;-54
2021/09/04 00:58:44;;;;;;;13.40;10.90;;;;;;;;;;5093684;28;20012;-56
2021/09/04 01:01:09;;;;;;;13.18;10.98;;;;;;;;;;5111318;28;20024;-57
2021/09/04 01:03:34;;;;;;;11.48;9.55;;;;;;;;;;5111992;28;20058;-55
2021/09/04 01:05:59;;;;;;;13.20;9.82;;;;;;;;;;5111793;28;20051;-58
2021/09/04 01:08:25;;;;;;;15.10;11.40;;;;;;;;;;5111985;28;20047;-57
2021/09/04 01:10:51;;;;;;;13.15;11.75;;;;;;;;;;5111430;28;20026;-56
2021/09/04 01:13:17;;;;;;;13.02;11.18;;;;;;;;;;5111938;28;20090;-57
2021/09/04 01:15:42;;;;;;;13.85;11.27;;;;;;;;;;5111422;28;20055;-56
2021/09/04 01:18:08;;;;;;;12.43;11.13;;;;;;;;;;5111074;28;20031;-56
2021/09/04 01:20:33;;;;;;;13.20;11.80;;;;;;;;;;5111463;28;20012;-57
2021/09/04 01:22:58;;;;;;;13.15;11.05;;;;;;;;;;5111771;28;20022;-56
2021/09/04 01:25:25;;;;;;;13.85;10.90;;;;;;;;;;5111620;28;20023;-55
2021/09/04 01:27:50;;;;;;;14.75;11.75;;;;;;;;;;5111267;28;20019;-57
2021/09/04 01:30:17;;;;;;;14.07;11.88;;;;;;;;;;5110989;28;20470;-54
2021/09/04 01:32:42;;;;;;;13.40;11.70;;;;;;;;;;5111497;28;20096;-56
2021/09/04 01:35:08;;;;;;;13.35;11.38;;;;;;;;;;5111501;28;20015;-55
2021/09/04 01:37:34;;;;;;;14.38;11.25;;;;;;;;;;5111437;28;20032;-56
2021/09/04 01:39:59;;;;;;;13.93;12.30;;;;;;;;;;5111128;28;20011;-56
2021/09/04 01:42:25;;;;;;;14.02;12.48;;;;;;;;;;5111337;28;20015;-53
2021/09/04 01:44:50;;;;;;;14.10;12.10;;;;;;;;;;5110594;28;20046;-56
2021/09/04 01:47:15;;;;;;;13.00;11.60;;;;;;;;;;5111692;28;20239;-56
2021/09/04 01:49:40;;;;;;;15.60;12.00;;;;;;;;;;5110993;28;20518;-57
2021/09/04 01:52:06;;;;;;;15.52;12.80;;;;;;;;;;5114603;28;20043;-54
2021/09/04 01:54:31;;;;;;;13.57;11.88;;;;;;;;;;5116152;28;20031;-56
2021/09/04 01:56:56;;;;;;;13.85;11.80;;;;;;;;;;5115608;28;20031;-55
2021/09/04 01:59:21;;;;;;;15.07;12.43;;;;;;;;;;5115067;28;20027;-54
2021/09/04 02:01:46;;;;;;;15.85;13.43;;;;;;;;;;5115449;28;20060;-52
2021/09/04 02:04:12;;;;;;;14.20;11.55;;;;;;;;;;5115216;28;20023;-57
2021/09/04 02:06:37;;;;;;;16.25;12.77;;;;;;;;;;5115607;28;20099;-56
2021/09/04 02:09:02;;;;;;;14.88;13.35;;;;;;;;;;5115322;28;20383;-55
2021/09/04 02:11:28;;;;;;;15.45;12.77;;;;;;;;;;5114553;28;20012;-57
2021/09/04 02:13:53;;;;;;;13.38;11.95;;;;;;;;;;5115150;28;20103;-56
2021/09/04 02:16:19;;;;;;;16.85;12.65;;;;;;;;;;5114862;28;20022;-56
2021/09/04 02:18:44;;;;;;;14.43;12.63;;;;;;;;;;5114689;28;20470;-56
2021/09/04 02:21:09;;;;;;;15.07;13.27;;;;;;;;;;5096388;28;20016;-56
2021/09/04 02:23:34;;;;;;;14.73;13.20;;;;;;;;;;5115210;28;20037;-56
2021/09/04 02:25:59;;;;;;;15.45;12.82;;;;;;;;;;5114737;28;20473;-56
2021/09/04 02:28:25;;;;;;;15.93;13.13;;;;;;;;;;5114935;28;20092;-55
2021/09/04 02:30:50;;;;;;;16.35;13.57;;;;;;;;;;5114268;28;20019;-57
2021/09/04 02:33:15;;;;;;;17.63;13.60;;;;;;;;;;5114844;28;20030;-55
2021/09/04 02:35:40;;;;;;;14.90;13.30;;;;;;;;;;5114621;28;20019;-57
2021/09/04 02:38:06;;;;;;;14.98;12.90;;;;;;;;;;5115143;28;20020;-53
2021/09/04 02:40:31;;;;;;;15.57;12.15;;;;;;;;;;5114755;28;20015;-56
2021/09/04 02:42:56;;;;;;;15.00;13.23;;;;;;;;;;5114865;28;20072;-53
2021/09/04 02:45:21;;;;;;;15.38;12.27;;;;;;;;;;5114198;28;20574;-55
2021/09/04 02:47:47;;;;;;;15.65;11.75;;;;;;;;;;5096321;28;20470;-56
2021/09/04 02:50:12;;;;;;;12.63;10.55;;;;;;;;;;5114727;28;20110;-57
2021/09/04 02:52:37;;;;;;;15.68;12.15;;;;;;;;;;5114944;28;20099;-54
2021/09/04 02:55:03;;;;;;;15.85;12.25;;;;;;;;;;5114414;28;20126;-55
2021/09/04 02:57:28;;;;;;;15.50;12.65;;;;;;;;;;5114625;28;20382;-57
2021/09/04 02:59:53;;;;;;;14.07;12.25;;;;;;;;;;5113605;28;20027;-56
2021/09/04 03:02:18;;;;;;;13.35;11.95;;;;;;;;;;5112950;28;20095;-57
2021/09/04 03:04:43;;;;;;;14.55;12.40;;;;;;;;;;5114293;28;20098;-57
2021/09/04 03:07:09;;;;;;;13.73;10.85;;;;;;;;;;5114434;28;20103;-57
2021/09/04 03:09:34;;;;;;;14.15;12.30;;;;;;;;;;5114203;28;20116;-58
2021/09/04 03:12:01;;;;;;;16.27;12.25;;;;;;;;;;5113890;28;20458;-55
2021/09/04 03:14:26;;;;;;;14.60;11.45;;;;;;;;;;5113904;28;20046;-56
2021/09/04 03:16:52;;;;;;;13.18;11.48;;;;;;;;;;5114034;28;20474;-56
2021/09/04 03:19:17;;;;;;;14.55;11.63;;;;;;;;;;5113635;28;20027;-53
2021/09/04 03:21:42;;;;;;;15.23;11.27;;;;;;;;;;5113900;28;20058;-57
2021/09/04 03:24:07;;;;;;;14.80;11.82;;;;;;;;;;5095398;28;20028;-55
2021/09/04 03:26:33;;;;;;;14.60;11.57;;;;;;;;;;5113595;28;20027;-54
2021/09/04 03:28:58;;;;;;;16.55;11.60;;;;;;;;;;5110510;28;20043;-54
2021/09/04 03:31:23;;;;;;;13.85;11.70;;;;;;;;;;5113403;28;20024;-55
2021/09/04 03:33:48;;;;;;;13.52;11.43;;;;;;;;;;5113816;28;20077;-57
2021/09/04 03:36:13;;;;;;;14.50;12.20;;;;;;;;;;5113532;28;20104;-58
2021/09/04 03:38:39;;;;;;;14.70;11.32;;;;;;;;;;5113553;28;20038;-57
2021/09/04 03:41:04;;;;;;;15.52;11.30;;;;;;;;;;5113248;28;20477;-56
2021/09/04 03:43:29;;;;;;;14.27;10.70;;;;;;;;;;5114019;28;20484;-56
2021/09/04 03:45:54;;;;;;;12.27;11.05;;;;;;;;;;5113280;28;20327;-55
2021/09/04 03:48:19;;;;;;;13.02;11.63;;;;;;;;;;5113269;28;20417;-57
2021/09/04 03:50:45;;;;;;;13.82;12.32;;;;;;;;;;5113401;28;20028;-56
2021/09/04 03:53:10;;;;;;;12.95;11.60;;;;;;;;;;5113797;28;20019;-54
2021/09/04 03:55:35;;;;;;;14.38;11.15;;;;;;;;;;5113503;28;20012;-57
2021/09/04 03:58:00;;;;;;;15.23;11.55;;;;;;;;;;5095153;28;20444;-55
2021/09/04 04:00:25;;;;;;;13.38;11.30;;;;;;;;;;5113181;28;20568;-55
2021/09/04 04:02:51;;;;;;;14.00;11.27;;;;;;;;;;5113366;28;20030;-56
2021/09/04 04:05:16;;;;;;;12.88;11.05;;;;;;;;;;5094555;28;20020;-57
2021/09/04 04:07:41;;;;;;;12.23;10.93;;;;;;;;;;5113923;28;20420;-55
2021/09/04 04:10:07;;;;;;;13.25;11.43;;;;;;;;;;5112801;28;20030;-56
2021/09/04 04:12:32;;;;;;;14.68;10.77;;;;;;;;;;5113171;28;20026;-55
2021/09/04 04:14:58;;;;;;;14.10;11.48;;;;;;;;;;5112474;28;20042;-54
2021/09/04 04:17:23;;;;;;;13.48;10.93;;;;;;;;;;5113008;28;20019;-55
2021/09/04 04:19:48;;;;;;;11.45;10.25;;;;;;;;;;5112940;28;20023;-56
2021/09/04 04:22:13;;;;;;;16.08;11.57;;;;;;;;;;5112503;28;20072;-56
2021/09/04 04:24:38;;;;;;;12.80;10.68;;;;;;;;;;5113197;28;20012;-57
2021/09/04 04:27:05;;;;;;;15.55;11.30;;;;;;;;;;5112806;28;20015;-54
2021/09/04 04:29:30;;;;;;;14.00;10.98;;;;;;;;;;5112291;28;20039;-56
2021/09/04 04:31:55;;;;;;;12.80;11.25;;;;;;;;;;5112841;28;20034;-53
2021/09/04 04:34:21;;;;;;;15.00;11.07;;;;;;;;;;5112076;28;20031;-56
2021/09/04 04:36:46;;;;;;;12.23;10.68;;;;;;;;;;5112741;28;20027;-53
2021/09/04 04:39:13;;;;;;;12.90;10.68;;;;;;;;;;5112547;28;20023;-55
2021/09/04 04:41:38;;;;;;;13.30;11.35;;;;;;;;;;5111887;28;20436;-54
2021/09/04 04:44:03;;;;;;;12.45;11.15;;;;;;;;;;5112337;28;20020;-57
2021/09/04 04:46:28;;;;;;;11.50;10.10;;;;;;;;;;5111793;28;20066;-56
2021/09/04 04:48:54;;;;;;;12.68;10.73;;;;;;;;;;5112401;28;20458;-55
2021/09/04 04:51:19;;;;;;;12.45;9.75;;;;;;;;;;5112022;28;20020;-56
2021/09/04 04:53:44;;;;;;;14.13;9.75;;;;;;;;;;5112390;28;20027;-56
2021/09/04 04:56:09;;;;;;;11.73;9.63;;;;;;;;;;5111816;28;20030;-55
2021/09/04 04:58:34;;;;;;;13.07;10.50;;;;;;;;;;5112046;28;20019;-56
2021/09/04 05:01:00;;;;;;;14.52;10.90;;;;;;;;;;5093053;28;20485;-57
2021/09/04 05:03:25;;;;;;;11.85;10.15;;;;;;;;;;5096495;28;20466;-55
2021/09/04 05:05:50;;;;;;;12.05;10.85;;;;;;;;;;5112179;28;20485;-56
2021/09/04 05:08:15;;;;;;;13.82;10.20;;;;;;;;;;5094204;28;20382;-55
2021/09/04 05:10:41;;;;;;;16.02;11.55;;;;;;;;;;5111096;28;20049;-53
2021/09/04 05:13:06;;;;;;;12.43;10.40;;;;;;;;;;5112084;28;20031;-54
2021/09/04 05:15:32;;;;;;;15.65;11.88;;;;;;;;;;5093500;28;20023;-57
2021/09/04 05:17:57;;;;;;;13.93;10.38;;;;;;;;;;5108605;28;20023;-56
2021/09/04 05:20:22;;;;;;;14.15;10.27;;;;;;;;;;5111524;28;20028;-54
2021/09/04 05:22:47;;;;;;;11.30;10.00;;;;;;;;;;5111464;28;20020;-55
2021/09/04 05:25:16;;;;;;;12.88;9.95;;;;;;;;;;5110968;28;20107;-57
2021/09/04 05:27:42;;;;;;;11.75;10.55;;;;;;;;;;5111945;28;20036;-57
2021/09/04 05:30:07;;;;;;;11.85;8.88;;;;;;;;;;5111560;28;20114;-59
2021/09/04 05:32:32;;;;;;;11.80;9.25;;;;;;;;;;5112186;28;20066;-58
2021/09/04 05:34:59;;;;;;;17.10;10.30;;;;;;;;;;5111961;28;20031;-58
2021/09/04 05:37:25;;;;;;;12.60;11.07;;;;;;;;;;5112573;28;20077;-57
2021/09/04 05:39:50;;;;;;;11.98;10.68;;;;;;;;;;5111551;28;20019;-56
2021/09/04 05:42:15;;;;;;;12.70;10.07;;;;;;;;;;5111815;28;20023;-56
2021/09/04 05:44:40;;;;;;;11.93;10.35;;;;;;;;;;5093630;28;20055;-55
2021/09/04 05:47:06;;;;;;;12.23;10.93;;;;;;;;;;5111650;28;20037;-58
2021/09/04 05:49:31;;;;;;;13.55;10.25;;;;;;;;;;5111599;28;20043;-57
2021/09/04 05:51:56;;;;;;;15.48;10.55;;;;;;;;;;5111399;28;20039;-55
2021/09/04 05:54:21;;;;;;;15.25;13.00;;;;;;;;;;5093836;28;20045;-56
2021/09/04 05:56:46;;;;;;;10.65;9.50;;;;;;;;;;5111599;28;20102;-57
2021/09/04 05:59:11;;;;;;;10.23;9.00;;;;;;;;;;5111721;28;20516;-56
2021/09/04 06:01:37;;;;;;;10.73;8.93;;;;;;;;;;5110763;28;20019;-58
2021/09/04 06:04:02;;;;;;;11.35;8.50;;;;;;;;;;5107284;28;20026;-57
2021/09/04 06:06:27;;;;;;;9.13;8.23;;;;;;;;;;5110492;28;20030;-56
2021/09/04 06:08:53;;;;;;;11.15;9.40;;;;;;;;;;5109059;28;20019;-57
2021/09/04 06:11:18;;;;;;;13.80;9.82;;;;;;;;;;5111202;28;20024;-57
2021/09/04 06:13:43;;;;;;;11.23;8.73;;;;;;;;;;5110850;28;20428;-54
2021/09/04 06:16:08;;;;;;;10.05;8.38;;;;;;;;;;5109861;28;20743;-57
2021/09/04 06:18:34;;;;;;;9.15;7.72;;;;;;;;;;5111496;28;20028;-55
2021/09/04 06:20:59;;;;;;;9.45;8.55;;;;;;;;;;5110827;28;20012;-58
2021/09/04 06:23:24;;;;;;;12.52;8.52;;;;;;;;;;5111158;28;20026;-58
2021/09/04 06:25:49;;;;;;;9.52;7.90;;;;;;;;;;5111408;28;20031;-58
2021/09/04 06:28:14;;;;;;;9.95;8.95;;;;;;;;;;5110780;28;20044;-59
2021/09/04 06:30:40;;;;;;;11.20;8.75;;;;;;;;;;5110784;28;20039;-58
2021/09/04 06:33:05;;;;;;;12.15;7.97;;;;;;;;;;5109928;28;20015;-56
2021/09/04 06:35:30;;;;;;;9.82;8.82;;;;;;;;;;5110950;28;20016;-57
2021/09/04 06:37:55;;;;;;;10.02;8.40;;;;;;;;;;5114000;28;20379;-56
2021/09/04 06:40:20;;;;;;;10.15;8.13;;;;;;;;;;5114466;28;20105;-57
2021/09/04 06:42:47;;;;;;;10.75;8.13;;;;;;;;;;5114098;28;20124;-58
2021/09/04 06:45:13;;;;;;;10.38;8.57;;;;;;;;;;5114211;28;20051;-56
2021/09/04 06:47:38;;;;;;;9.20;8.30;;;;;;;;;;5114204;28;20020;-57
2021/09/04 06:50:04;;;;;;;9.70;8.70;;;;;;;;;;5114668;28;20072;-56
2021/09/04 06:52:29;;;;;;;9.57;8.68;;;;;;;;;;5114854;28;20477;-57
2021/09/04 06:54:54;;;;;;;11.43;9.65;;;;;;;;;;5114533;28;20026;-56
2021/09/04 06:57:19;;;;;;;11.93;10.32;;;;;;;;;;5114928;28;20028;-57
2021/09/04 06:59:45;;;;;;;12.45;10.57;;;;;;;;;;5095837;28;20035;-57
2021/09/04 07:02:10;;;;;;;11.93;10.60;;;;;;;;;;5114723;28;20019;-55
2021/09/04 07:04:35;;;;;;;10.70;9.60;;;;;;;;;;5114129;28;20047;-57
2021/09/04 07:07:01;;;;;;;11.65;10.10;;;;;;;;;;5114366;28;20027;-55
2021/09/04 07:09:27;;;;;;;13.07;11.50;;;;;;;;;;5095989;28;20031;-56
2021/09/04 07:11:52;;;;;;;12.43;11.10;;;;;;;;;;5113900;28;20031;-55
2021/09/04 07:14:17;;;;;;;13.68;10.68;;;;;;;;;;5114265;28;20027;-54
2021/09/04 07:16:42;;;;;;;12.32;11.00;;;;;;;;;;5113341;28;20390;-58
2021/09/04 07:19:08;;;;;;;15.38;12.38;;;;;;;;;;5095521;28;20019;-58
2021/09/04 07:21:33;;;;;;;12.20;10.90;;;;;;;;;;5114407;28;20019;-55
2021/09/04 07:23:59;;;;;;;13.70;11.50;;;;;;;;;;5114006;28;20382;-57
2021/09/04 07:26:24;;;;;;;14.82;12.38;;;;;;;;;;5095268;28;20027;-57
2021/09/04 07:28:49;;;;;;;19.08;14.18;;;;;;;;;;5113183;28;20044;-57
2021/09/04 07:31:15;;;;;;;14.93;12.15;;;;;;;;;;5113519;28;20034;-56
2021/09/04 07:33:40;;;;;;;18.65;13.60;;;;;;;;;;5113799;28;20020;-56
2021/09/04 07:36:08;;;;;;;19.35;13.65;;;;;;;;;;5112329;28;20100;-57
2021/09/04 07:38:34;;;;;;;18.42;14.52;;;;;;;;;;5113675;28;20023;-56
2021/09/04 07:40:59;;;;;;;16.90;15.25;;;;;;;;;;5094688;28;20480;-57
2021/09/04 07:43:24;;;;;;;18.63;14.75;;;;;;;;;;5111772;28;20020;-56
2021/09/04 07:45:49;;;;;;;17.75;14.13;;;;;;;;;;5112313;27;20022;-56
2021/09/04 07:48:14;;;;;;;17.23;13.43;;;;;;;;;;5111860;28;20392;-55
2021/09/04 07:50:40;;;;;;;16.48;13.00;;;;;;;;;;5112881;27;20520;-58
2021/09/04 07:53:05;;;;;;;15.38;13.65;;;;;;;;;;5112366;28;20427;-56
2021/09/04 07:55:30;;;;;;;18.83;14.98;;;;;;;;;;5112477;28;20120;-57
2021/09/04 07:57:55;;;;;;;16.27;14.57;;;;;;;;;;5112424;28;20016;-55
2021/09/04 08:00:20;;;;;;;16.17;14.45;;;;;;;;;;5110805;28;20034;-57
2021/09/04 08:02:47;;;;;;;18.35;14.45;;;;;;;;;;5111373;28;20016;-58
2021/09/04 08:05:12;;;;;;;18.77;15.20;;;;;;;;;;5111654;28;20039;-57
2021/09/04 08:07:38;;;;;;;17.02;14.95;;;;;;;;;;5112028;28;20084;-56
2021/09/04 08:10:04;;;;;;;20.38;16.52;;;;;;;;;;5111508;28;20019;-58
2021/09/04 08:12:29;;;;;;;19.50;16.85;;;;;;;;;;5112240;28;20019;-57
2021/09/04 08:14:54;;;;;;;21.75;18.65;;;;;;;;;;5111619;28;20373;-57
2021/09/04 08:17:20;;;;;;;20.85;17.23;;;;;;;;;;5112421;28;20068;-56
2021/09/04 08:19:45;;;;;;;23.08;18.45;;;;;;;;;;5112174;28;20458;-58
2021/09/04 08:22:10;;;;;;;18.55;16.25;;;;;;;;;;5112302;28;20054;-57
2021/09/04 08:24:35;;;;;;;26.58;20.25;;;;;;;;;;5111655;28;20012;-55
2021/09/04 08:27:00;;;;;;;29.23;23.30;;;;;;;;;;5112048;28;20075;-55
2021/09/04 08:29:26;;;;;;;29.33;22.92;;;;;;;;;;5111775;28;20544;-55
2021/09/04 08:31:51;;;;;;;29.67;22.50;;;;;;;;;;5111425;28;20038;-58
2021/09/04 08:34:16;;;;;;;29.02;22.98;;;;;;;;;;5113556;27;20106;-58
2021/09/04 08:36:42;;;;;;;28.10;23.35;;;;;;;;;;5093903;28;20040;-57
2021/09/04 08:39:07;;;;;;;24.85;21.92;;;;;;;;;;5111752;28;20239;-58
2021/09/04 08:41:35;;;;;;;29.80;22.40;;;;;;;;;;5111603;28;20141;-57
2021/09/04 08:44:00;;;;;;;24.90;20.92;;;;;;;;;;5111108;28;20043;-57
2021/09/04 08:46:31;;;;;;;27.20;22.42;;;;;;;;;;5111006;28;20111;-57
2021/09/04 08:48:56;;;;;;;26.67;22.67;;;;;;;;;;5111355;28;20289;-58
2021/09/04 08:51:22;;;;;;;26.38;20.90;;;;;;;;;;5111053;28;20027;-56
2021/09/04 08:53:47;;;;;;;22.90;20.20;;;;;;;;;;5111685;28;20019;-57
2021/09/04 08:56:12;;;;;;;24.55;21.73;;;;;;;;;;5111337;28;20351;-58
2021/09/04 08:58:37;;;;;;;24.88;20.67;;;;;;;;;;5111559;28;20015;-58
2021/09/04 09:01:13;;;;;;;23.23;19.98;;;;;;;;;;5110808;28;20486;-57
2021/09/04 09:03:41;;;;;;;25.15;21.35;;;;;;;;;;5110904;28;20377;-58
2021/09/04 09:06:06;;;;;;;28.05;22.15;;;;;;;;;;5111145;28;20164;-58
2021/09/04 09:08:31;;;;;;;25.38;21.73;;;;;;;;;;5111561;28;20104;-57
2021/09/04 09:11:00;;;;;;;24.23;21.47;;;;;;;;;;5111017;28;20049;-59
2021/09/04 09:13:25;;;;;;;26.25;22.00;;;;;;;;;;5108016;28;20258;-59
2021/09/04 09:15:54;;;;;;;25.50;22.35;;;;;;;;;;5110110;28;20099;-58
2021/09/04 09:18:19;;;;;;;26.80;22.60;;;;;;;;;;5110242;28;20031;-58
2021/09/04 09:20:46;;;;;;;25.48;21.58;;;;;;;;;;5110999;28;20084;-57
2021/09/04 09:23:16;;;;;;;25.30;21.58;;;;;;;;;;5111913;28;20034;-56
2021/09/04 09:25:43;;;;;;;29.67;23.30;;;;;;;;;;5111255;28;20024;-56
2021/09/04 09:28:14;;;;;;;24.77;20.73;;;;;;;;;;5110289;28;20118;-57
2021/09/04 09:30:44;;;;;;;25.45;21.25;;;;;;;;;;5109889;28;20061;-58
2021/09/04 09:33:11;;;;;;;24.88;21.20;;;;;;;;;;5111102;28;20020;-58
2021/09/04 09:35:46;;;;;;;24.60;19.88;;;;;;;;;;5111566;28;20020;-57
2021/09/04 09:38:13;;;;;;;22.38;19.60;;;;;;;;;;5111560;28;20426;-58
2021/09/04 09:40:39;;;;;;;23.40;19.23;;;;;;;;;;5111716;28;20028;-58
2021/09/04 09:43:17;;;;;;;22.98;19.58;;;;;;;;;;5109349;28;20103;-58
2021/09/04 09:45:44;;;;;;;23.05;20.00;;;;;;;;;;5099675;28;20412;-58
2021/09/04 09:48:09;;;;;;;23.23;19.95;;;;;;;;;;5092001;28;20553;-59
2021/09/04 09:50:35;;;;;;;24.20;20.48;;;;;;;;;;5111232;28;20102;-57
2021/09/04 09:53:01;;;;;;;24.60;18.88;;;;;;;;;;5111004;28;20462;-58
2021/09/04 09:55:27;;;;;;;24.95;20.08;;;;;;;;;;5111358;28;20028;-59
2021/09/04 09:57:53;;;;;;;20.75;17.92;;;;;;;;;;5110705;28;20019;-59
2021/09/04 10:00:18;;;;;;;20.95;18.02;;;;;;;;;;5110573;28;20023;-58
2021/09/04 10:02:46;;;;;;;25.10;18.20;;;;;;;;;;5109878;28;20020;-58
2021/09/04 10:05:11;;;;;;;22.92;18.20;;;;;;;;;;5110294;28;20458;-58
2021/09/04 10:07:37;;;;;;;22.45;18.83;;;;;;;;;;5110121;28;20028;-59
2021/09/04 10:10:02;;;;;;;23.63;19.75;;;;;;;;;;5109868;28;20098;-58
2021/09/04 10:12:28;;;;;;;24.92;19.95;;;;;;;;;;5110603;28;20391;-58
2021/09/04 10:14:53;;;;;;;22.30;19.17;;;;;;;;;;5100353;28;20454;-58
2021/09/04 10:17:19;;;;;;;21.88;19.25;;;;;;;;;;5115672;28;20389;-59
2021/09/04 10:19:45;;;;;;;21.65;18.67;;;;;;;;;;5115201;28;20308;-58
2021/09/04 10:22:10;;;;;;;23.42;18.50;;;;;;;;;;5115384;28;20030;-58
2021/09/04 10:24:41;;;;;;;22.50;19.17;;;;;;;;;;5114923;28;20058;-58
2021/09/04 10:27:07;;;;;;;21.75;17.63;;;;;;;;;;5115543;28;20022;-57
2021/09/04 10:29:39;;;;;;;19.73;16.70;;;;;;;;;;5115321;28;20393;-58
2021/09/04 10:32:04;;;;;;;20.67;16.55;;;;;;;;;;5115020;28;20110;-58
2021/09/04 10:34:31;;;;;;;19.00;16.83;;;;;;;;;;5115248;28;20095;-57
2021/09/04 10:37:12;;;;;;;18.30;15.80;;;;;;;;;;5111542;28;20028;-58
2021/09/04 10:39:46;;;;;;;16.77;15.10;;;;;;;;;;5113492;28;20478;-58
2021/09/04 10:42:15;;;;;;;15.45;13.90;;;;;;;;;;5113831;28;20069;-57
2021/09/04 10:44:42;;;;;;;17.45;15.63;;;;;;;;;;5114910;28;20077;-57
2021/09/04 10:47:09;;;;;;;16.70;14.98;;;;;;;;;;5114584;28;20028;-58
2021/09/04 10:49:42;;;;;;;15.13;13.55;;;;;;;;;;5114759;28;20027;-58
2021/09/04 10:52:07;;;;;;;16.77;15.07;;;;;;;;;;5107604;28;20118;-58
2021/09/04 10:54:36;;;;;;;17.15;14.88;;;;;;;;;;5114865;28;20094;-58
2021/09/04 10:57:14;;;;;;;14.57;13.10;;;;;;;;;;5115161;28;20092;-58
2021/09/04 10:59:57;;;;;;;15.80;14.30;;;;;;;;;;5114780;28;20022;-59
2021/09/04 11:02:37;;;;;;;14.20;12.90;;;;;;;;;;5114721;28;20024;-59
2021/09/04 11:05:22;;;;;;;16.13;14.63;;;;;;;;;;5114796;28;20055;-59
2021/09/04 11:07:47;;;;;;;15.35;13.82;;;;;;;;;;5114437;28;20362;-59
2021/09/04 11:10:22;;;;;;;14.97;13.10;;;;;;;;;;5113885;28;20019;-59
2021/09/04 11:13:03;;;;;;;15.02;13.60;;;;;;;;;;5114474;28;20023;-58
2021/09/04 11:15:28;;;;;;;15.30;13.80;;;;;;;;;;5113209;28;21364;-58
2021/09/04 11:17:53;;;;;;;15.88;14.38;;;;;;;;;;5114210;28;20098;-58
2021/09/04 11:20:19;;;;;;;15.67;14.17;;;;;;;;;;5113048;28;20023;-58
2021/09/04 11:22:45;;;;;;;14.40;13.20;;;;;;;;;;5113150;28;20265;-59
2021/09/04 11:25:12;;;;;;;14.07;12.75;;;;;;;;;;5113629;28;20027;-59
2021/09/04 11:27:43;;;;;;;15.82;14.18;;;;;;;;;;5113496;28;20027;-59
2021/09/04 11:30:09;;;;;;;14.75;13.27;;;;;;;;;;5114013;28;20031;-59
2021/09/04 11:32:34;;;;;;;13.68;12.38;;;;;;;;;;5113621;28;20027;-58
2021/09/04 11:35:00;;;;;;;16.40;14.80;;;;;;;;;;5113408;28;20104;-57
2021/09/04 11:37:25;;;;;;;15.52;14.02;;;;;;;;;;5110474;28;20055;-58
2021/09/04 11:40:02;;;;;;;13.60;12.30;;;;;;;;;;5112562;28;20042;-58
2021/09/04 11:42:31;;;;;;;13.55;12.27;;;;;;;;;;5113170;28;20261;-58
2021/09/04 11:44:58;;;;;;;14.27;12.75;;;;;;;;;;5113908;28;20053;-59
2021/09/04 11:47:24;;;;;;;14.05;12.63;;;;;;;;;;5113888;28;20020;-58
2021/09/04 11:49:54;;;;;;;14.85;13.55;;;;;;;;;;5114151;28;20035;-58
2021/09/04 11:52:21;;;;;;;12.52;11.32;;;;;;;;;;5113763;28;20012;-58
2021/09/04 11:54:46;;;;;;;14.70;13.30;;;;;;;;;;5114270;28;20090;-58
2021/09/04 11:57:25;;;;;;;13.25;12.05;;;;;;;;;;5096146;28;20110;-58
2021/09/04 11:59:59;;;;;;;12.68;11.57;;;;;;;;;;5113367;28;20034;-58
2021/09/04 12:02:25;;;;;;;14.25;12.90;;;;;;;;;;5113543;28;20024;-58
2021/09/04 12:04:50;;;;;;;14.68;13.27;;;;;;;;;;5113779;28;20015;-58
2021/09/04 12:07:15;;;;;;;13.27;11.97;;;;;;;;;;5113289;28;20211;-57
2021/09/04 12:09:41;;;;;;;13.17;11.97;;;;;;;;;;5112954;28;20145;-58
2021/09/04 12:12:06;;;;;;;12.68;11.57;;;;;;;;;;5112786;28;20031;-58
2021/09/04 12:14:32;;;;;;;13.95;12.65;;;;;;;;;;5114417;28;20027;-57
2021/09/04 12:16:57;;;;;;;13.55;12.38;;;;;;;;;;5113040;28;20030;-58
2021/09/04 12:19:23;;;;;;;12.63;11.50;;;;;;;;;;5111915;28;20466;-59
2021/09/04 12:21:49;;;;;;;13.43;12.20;;;;;;;;;;5107269;28;20019;-58
2021/09/04 12:24:14;;;;;;;13.27;12.07;;;;;;;;;;5097387;28;20036;-58
2021/09/04 12:26:49;;;;;;;12.70;11.60;;;;;;;;;;5111954;28;20022;-58
2021/09/04 12:29:14;;;;;;;13.50;12.30;;;;;;;;;;5112287;28;20482;-56
2021/09/04 12:31:40;;;;;;;12.83;11.60;;;;;;;;;;5111816;28;20031;-59
2021/09/04 12:34:05;;;;;;;12.05;11.05;;;;;;;;;;5113130;28;20080;-57
2021/09/04 12:36:30;;;;;;;12.43;11.33;;;;;;;;;;5112592;28;20019;-58
2021/09/04 12:39:08;;;;;;;12.93;11.73;;;;;;;;;;5112254;28;20024;-56
2021/09/04 12:41:35;;;;;;;13.45;12.25;;;;;;;;;;5109376;28;20381;-59
2021/09/04 12:44:02;;;;;;;13.38;12.18;;;;;;;;;;5111036;28;20015;-59
2021/09/04 12:46:40;;;;;;;11.32;10.27;;;;;;;;;;5106561;28;20053;-58
2021/09/04 12:49:23;;;;;;;12.55;11.32;;;;;;;;;;5112736;28;20038;-58
2021/09/04 12:52:01;;;;;;;12.85;11.65;;;;;;;;;;5112633;28;20054;-59
2021/09/04 12:54:32;;;;;;;12.70;11.70;;;;;;;;;;5118135;27;20466;-59
2021/09/04 12:57:04;;;;;;;12.77;11.70;;;;;;;;;;5112441;28;20035;-56
2021/09/04 12:59:40;;;;;;;12.00;10.95;;;;;;;;;;5112365;28;20024;-58
2021/09/04 13:02:07;;;;;;;13.18;11.98;;;;;;;;;;5111220;28;20390;-58
2021/09/04 13:04:32;;;;;;;13.15;11.95;;;;;;;;;;5112103;28;20014;-57
2021/09/04 13:07:00;;;;;;;13.45;12.25;;;;;;;;;;5111603;28;20098;-58
2021/09/04 13:09:25;;;;;;;14.15;12.82;;;;;;;;;;5111731;28;20523;-58
2021/09/04 13:11:50;;;;;;;14.17;11.23;;;;;;;;;;5101512;28;20023;-59
2021/09/04 13:14:15;;;;;;;13.37;11.87;;;;;;;;;;5111800;28;20066;-59
2021/09/04 13:16:41;;;;;;;12.20;11.20;;;;;;;;;;5111703;28;20119;-58
2021/09/04 13:19:06;;;;;;;11.70;10.70;;;;;;;;;;5111490;28;20465;-58
2021/09/04 13:21:31;;;;;;;12.30;11.20;;;;;;;;;;5111612;28;20019;-58
2021/09/04 13:23:56;;;;;;;14.25;12.93;;;;;;;;;;5112410;28;20019;-59
2021/09/04 13:26:22;;;;;;;11.40;10.40;;;;;;;;;;5111496;28;20059;-58
2021/09/04 13:28:47;;;;;;;10.63;9.70;;;;;;;;;;5111190;28;20044;-58
2021/09/04 13:31:12;;;;;;;12.30;11.13;;;;;;;;;;5111860;28;20024;-58
2021/09/04 13:33:37;;;;;;;11.57;10.53;;;;;;;;;;5111868;28;20019;-58
2021/09/04 13:36:04;;;;;;;12.30;11.10;;;;;;;;;;5093295;28;20028;-59
2021/09/04 13:38:29;;;;;;;12.02;10.90;;;;;;;;;;5112036;28;20584;-58
2021/09/04 13:40:54;;;;;;;11.37;10.47;;;;;;;;;;5111671;28;20024;-59
2021/09/04 13:43:19;;;;;;;10.30;9.50;;;;;;;;;;5092417;28;20028;-59
2021/09/04 13:45:45;;;;;;;11.30;10.40;;;;;;;;;;5111339;28;20023;-59
2021/09/04 13:48:10;;;;;;;10.80;9.97;;;;;;;;;;5111166;28;20016;-59
2021/09/04 13:50:35;;;;;;;10.83;9.87;;;;;;;;;;5111912;28;20027;-58
2021/09/04 13:53:00;;;;;;;11.70;10.60;;;;;;;;;;5111339;28;20832;-58
2021/09/04 13:55:25;;;;;;;10.37;9.53;;;;;;;;;;5112235;28;20024;-58
2021/09/04 13:57:51;;;;;;;9.57;8.77;;;;;;;;;;5093709;28;20016;-58
2021/09/04 14:00:17;;;;;;;10.83;9.93;;;;;;;;;;5110882;28;20163;-58
2021/09/04 14:02:42;;;;;;;11.80;10.80;;;;;;;;;;5111284;28;20269;-59
2021/09/04 14:05:07;;;;;;;11.30;10.30;;;;;;;;;;5111980;28;20054;-58
2021/09/04 14:07:32;;;;;;;9.70;8.80;;;;;;;;;;5111940;28;20039;-59
2021/09/04 14:09:58;;;;;;;11.93;10.67;;;;;;;;;;5111179;28;20024;-59
2021/09/04 14:12:23;;;;;;;11.48;10.30;;;;;;;;;;5111069;28;20031;-58